createdAt,value
2023-04-30T00:02:50.580Z,8.10
2023-04-30T00:06:59.226Z,11.10
2023-04-30T00:11:07.829Z,9.03
2023-04-30T00:15:16.443Z,8.90
2023-04-30T00:19:25.197Z,11.93
2023-04-30T00:23:33.828Z,8.83
2023-04-30T00:27:42.655Z,10.53
2023-04-30T00:31:51.275Z,7.00
2023-04-30T00:35:59.907Z,15.47
2023-04-30T00:40:29.442Z,10.40
2023-04-30T00:44:38.058Z,9.47
2023-04-30T00:48:46.786Z,9.30
2023-04-30T00:53:14.870Z,8.57
2023-04-30T00:57:24.321Z,10.40
2023-04-30T01:01:33.715Z,12.53
2023-04-30T01:05:42.381Z,7.60
2023-04-30T01:09:51.992Z,9.45
2023-04-30T01:14:16.138Z,16.70
2023-04-30T01:23:42.549Z,10.10
2023-04-30T01:28:17.150Z,9.70
2023-04-30T01:32:25.791Z,11.60
2023-04-30T01:37:01.032Z,10.00
2023-04-30T01:41:32.203Z,8.83
2023-04-30T01:46:15.801Z,12.60
2023-04-30T01:50:27.541Z,12.13
2023-04-30T01:54:42.153Z,11.60
2023-04-30T01:58:53.097Z,13.57
2023-04-30T02:03:02.048Z,12.00
2023-04-30T02:07:10.762Z,14.57
2023-04-30T02:11:19.310Z,9.13
2023-04-30T02:15:28.018Z,13.83
2023-04-30T02:19:36.763Z,9.00
2023-04-30T02:23:45.937Z,9.60
2023-04-30T02:27:54.628Z,13.00
2023-04-30T02:32:03.416Z,9.90
2023-04-30T02:36:12.015Z,10.13
2023-04-30T02:40:20.616Z,12.70
2023-04-30T02:44:30.359Z,9.10
2023-04-30T02:48:38.914Z,10.80
2023-04-30T02:52:47.925Z,7.87
2023-04-30T02:57:16.012Z,14.10
2023-04-30T03:01:24.769Z,11.20
2023-04-30T03:05:33.692Z,12.30
2023-04-30T03:09:42.779Z,12.00
2023-04-30T03:13:51.643Z,9.37
2023-04-30T03:18:00.313Z,13.30
2023-04-30T03:22:08.951Z,11.00
2023-04-30T03:26:17.939Z,9.73
2023-04-30T03:30:26.573Z,12.27
2023-04-30T03:34:35.300Z,13.33
2023-04-30T03:38:43.937Z,11.87
2023-04-30T03:43:12.840Z,13.13
2023-04-30T03:47:22.363Z,11.63
2023-04-30T03:51:31.219Z,11.10
2023-04-30T03:55:40.082Z,11.30
2023-04-30T03:59:48.934Z,8.13
2023-04-30T04:03:57.631Z,9.53
2023-04-30T04:08:06.865Z,7.50
2023-04-30T04:12:15.491Z,9.10
2023-04-30T04:16:24.154Z,11.73
2023-04-30T04:20:32.957Z,12.20
2023-04-30T04:24:41.788Z,10.93
2023-04-30T04:28:50.348Z,7.70
2023-04-30T04:33:00.541Z,10.50
2023-04-30T04:37:10.043Z,8.88
2023-04-30T04:41:18.857Z,11.37
2023-04-30T04:45:27.485Z,9.80
2023-04-30T04:49:36.114Z,8.43
2023-04-30T04:53:44.689Z,10.87
2023-04-30T04:57:53.371Z,8.27
2023-04-30T05:02:02.196Z,11.60
2023-04-30T05:06:10.857Z,11.40
2023-04-30T05:10:19.567Z,11.20
2023-04-30T05:14:28.124Z,10.20
2023-04-30T05:18:36.745Z,11.07
2023-04-30T05:22:45.402Z,11.20
2023-04-30T05:26:54.020Z,12.40
2023-04-30T05:31:02.712Z,10.10
2023-04-30T05:35:12.185Z,11.77
2023-04-30T05:39:20.993Z,12.90
2023-04-30T05:43:29.617Z,13.10
2023-04-30T05:47:38.277Z,10.67
2023-04-30T05:51:46.981Z,12.70
2023-04-30T05:55:55.711Z,8.83
2023-04-30T06:00:06.195Z,14.50
2023-04-30T06:04:14.915Z,14.10
2023-04-30T06:08:23.646Z,20.80
2023-04-30T06:12:32.861Z,13.40
2023-04-30T06:16:41.542Z,14.80
2023-04-30T06:20:50.152Z,14.13
2023-04-30T06:24:58.779Z,13.20
2023-04-30T06:29:07.508Z,21.77
2023-04-30T06:33:16.155Z,9.67
2023-04-30T06:37:24.869Z,11.57
2023-04-30T06:41:33.497Z,11.33
2023-04-30T06:45:42.227Z,14.03
2023-04-30T06:49:50.853Z,9.10
2023-04-30T06:53:59.736Z,12.00
2023-04-30T06:58:08.425Z,14.13
2023-04-30T07:02:17.176Z,11.43
2023-04-30T07:06:38.436Z,12.33
2023-04-30T07:10:48.436Z,12.10
2023-04-30T07:14:57.164Z,13.63
2023-04-30T07:19:06.099Z,13.07
2023-04-30T07:23:19.140Z,9.87
2023-04-30T07:27:29.907Z,13.30
2023-04-30T07:31:38.630Z,16.97
2023-04-30T07:35:47.426Z,14.33
2023-04-30T07:40:25.401Z,10.83
2023-04-30T07:44:26.242Z,15.60
2023-04-30T07:48:43.769Z,11.93
2023-04-30T07:52:50.970Z,11.73
2023-04-30T07:56:59.615Z,10.53
2023-04-30T08:01:08.211Z,14.23
2023-04-30T08:05:19.877Z,12.47
2023-04-30T08:09:28.661Z,9.83
2023-04-30T08:13:37.395Z,14.70
2023-04-30T08:17:46.151Z,15.20
2023-04-30T08:21:54.915Z,12.33
2023-04-30T08:26:03.587Z,13.50
2023-04-30T08:30:16.341Z,13.03
2023-04-30T08:34:24.874Z,13.67
2023-04-30T08:38:33.481Z,12.23
2023-04-30T08:42:45.175Z,12.43
2023-04-30T08:46:56.219Z,15.73
2023-04-30T08:51:05.407Z,10.10
2023-04-30T08:55:14.130Z,12.70
2023-04-30T08:59:22.713Z,11.57
2023-04-30T09:03:33.072Z,12.83
2023-04-30T09:08:01.090Z,11.47
2023-04-30T09:11:54.361Z,8.23
2023-04-30T09:16:03.147Z,7.20
2023-04-30T09:20:13.934Z,7.10
2023-04-30T09:24:24.800Z,6.80
2023-04-30T09:28:33.492Z,8.83
2023-04-30T09:32:57.172Z,7.40
2023-04-30T09:37:06.215Z,7.03
2023-04-30T09:41:23.540Z,6.47
2023-04-30T09:45:50.783Z,6.80
2023-04-30T09:50:01.346Z,14.77
2023-04-30T09:54:12.564Z,5.53
2023-04-30T09:58:22.683Z,6.90
2023-04-30T10:02:32.588Z,7.20
2023-04-30T10:06:43.856Z,5.63
2023-04-30T10:10:55.631Z,7.53
2023-04-30T10:15:23.643Z,8.03
2023-04-30T10:19:34.783Z,9.50
2023-04-30T10:23:48.253Z,7.10
2023-04-30T10:27:57.473Z,7.20
2023-04-30T10:32:06.933Z,10.03
2023-04-30T10:36:18.008Z,8.87
2023-04-30T10:40:29.591Z,5.73
2023-04-30T10:44:40.009Z,9.60
2023-04-30T10:48:48.750Z,7.20
2023-04-30T10:53:03.984Z,5.78
2023-04-30T10:57:20.616Z,5.53
2023-04-30T11:01:31.017Z,9.60
2023-04-30T11:05:41.120Z,6.00
2023-04-30T11:09:49.988Z,5.50
2023-04-30T11:14:02.264Z,4.20
2023-04-30T11:18:11.205Z,4.73
2023-04-30T11:22:23.192Z,3.60
2023-04-30T11:26:33.318Z,5.90
2023-04-30T11:30:52.758Z,6.30
2023-04-30T11:35:03.899Z,5.27
2023-04-30T11:39:14.294Z,3.40
2023-04-30T11:43:27.855Z,3.20
2023-04-30T11:47:42.545Z,5.30
2023-04-30T11:51:52.445Z,6.63
2023-04-30T11:56:06.270Z,4.80
2023-04-30T12:00:20.418Z,4.67
2023-04-30T12:04:29.249Z,3.57
2023-04-30T12:08:38.730Z,3.10
2023-04-30T12:12:50.755Z,3.40
2023-04-30T12:17:00.250Z,4.50
2023-04-30T12:21:09.595Z,4.77
2023-04-30T12:25:20.516Z,3.37
2023-04-30T12:29:29.318Z,4.30
2023-04-30T12:33:38.128Z,3.30
2023-04-30T12:37:53.591Z,3.00
2023-04-30T12:42:03.551Z,3.30
2023-04-30T12:46:12.390Z,3.30
2023-04-30T12:50:23.487Z,3.73
2023-04-30T12:54:33.560Z,3.00
2023-04-30T12:58:44.988Z,4.60
2023-04-30T13:03:06.180Z,3.33
2023-04-30T13:07:14.889Z,3.03
2023-04-30T13:11:24.380Z,5.13
2023-04-30T13:15:34.088Z,4.07
2023-04-30T13:19:42.849Z,2.60
2023-04-30T13:24:10.793Z,3.00
2023-04-30T13:28:19.488Z,3.07
2023-04-30T13:32:28.698Z,4.13
2023-04-30T13:36:41.066Z,2.90
2023-04-30T13:40:50.258Z,2.50
2023-04-30T13:44:58.962Z,2.43
2023-04-30T13:49:07.626Z,2.37
2023-04-30T13:53:16.310Z,2.97
2023-04-30T13:57:25.464Z,2.50
2023-04-30T14:01:34.209Z,2.63
2023-04-30T14:05:42.844Z,3.10
2023-04-30T14:09:51.486Z,3.70
2023-04-30T14:14:00.085Z,2.73
2023-04-30T14:18:08.805Z,2.63
2023-04-30T14:22:17.461Z,3.40
2023-04-30T14:26:26.212Z,2.90
2023-04-30T14:30:34.933Z,3.23
2023-04-30T14:34:44.785Z,2.90
2023-04-30T14:38:54.051Z,2.93
2023-04-30T14:43:02.762Z,3.13
2023-04-30T14:47:11.702Z,2.70
2023-04-30T14:51:25.853Z,4.13
2023-04-30T14:55:35.090Z,4.33
2023-04-30T14:59:43.645Z,4.17
2023-04-30T15:03:53.263Z,2.97
2023-04-30T15:08:02.112Z,3.43
2023-04-30T15:12:11.168Z,3.10
2023-04-30T15:16:19.926Z,4.77
2023-04-30T15:20:28.713Z,2.80
2023-04-30T15:24:37.351Z,2.90
2023-04-30T15:28:46.075Z,4.03
2023-04-30T15:33:03.396Z,2.93
2023-04-30T15:37:12.246Z,3.03
2023-04-30T15:41:21.796Z,3.63
2023-04-30T15:45:30.612Z,3.30
2023-04-30T15:49:39.246Z,3.03
2023-04-30T15:53:47.867Z,3.30
2023-04-30T15:57:56.503Z,3.03
2023-04-30T16:02:05.142Z,2.80
2023-04-30T16:06:13.887Z,3.27
2023-04-30T16:10:22.660Z,2.93
2023-04-30T16:14:31.326Z,3.40
2023-04-30T16:18:40.980Z,4.07
2023-04-30T16:23:08.950Z,2.43
2023-04-30T16:27:17.602Z,2.50
2023-04-30T16:31:26.475Z,2.47
2023-04-30T16:35:35.355Z,2.40
2023-04-30T16:39:44.038Z,3.60
2023-04-30T16:43:52.596Z,2.30
2023-04-30T16:48:01.400Z,2.30
2023-04-30T16:52:10.290Z,2.23
2023-04-30T16:56:19.772Z,2.40
2023-04-30T17:00:28.565Z,2.60
2023-04-30T17:04:49.222Z,4.90
2023-04-30T17:08:58.216Z,2.37
2023-04-30T17:13:06.941Z,2.57
2023-04-30T17:17:16.340Z,4.13
2023-04-30T17:21:25.020Z,2.67
2023-04-30T17:25:33.759Z,6.43
2023-04-30T17:29:42.827Z,4.13
2023-04-30T17:33:51.397Z,4.00
2023-04-30T17:38:00.663Z,4.60
2023-04-30T17:42:09.981Z,2.80
2023-04-30T17:46:18.792Z,4.10
2023-04-30T17:50:27.480Z,2.60
2023-04-30T17:54:36.676Z,6.87
2023-04-30T17:58:45.759Z,3.80
2023-04-30T18:02:54.446Z,4.00
2023-04-30T18:07:03.071Z,4.43
2023-04-30T18:11:12.050Z,2.70
2023-04-30T18:15:20.687Z,4.33
2023-04-30T18:19:29.306Z,2.40
2023-04-30T18:23:37.940Z,2.40
2023-04-30T18:27:46.672Z,5.40
2023-04-30T18:31:56.686Z,4.03
2023-04-30T18:36:07.350Z,4.77
2023-04-30T18:40:16.237Z,4.17
2023-04-30T18:44:32.045Z,3.13
2023-04-30T18:48:40.866Z,2.80
2023-04-30T18:52:49.702Z,4.27
2023-04-30T18:56:58.547Z,2.73
2023-04-30T19:01:08.556Z,6.07
2023-04-30T19:05:18.165Z,4.30
2023-04-30T19:09:26.882Z,2.80
2023-04-30T19:13:54.962Z,4.33
2023-04-30T19:18:03.760Z,2.90
2023-04-30T19:22:12.528Z,4.53
2023-04-30T19:26:22.407Z,3.50
2023-04-30T19:30:56.595Z,6.07
2023-04-30T19:35:26.655Z,3.30
2023-04-30T19:39:36.396Z,5.97
2023-04-30T19:43:46.223Z,3.70
2023-04-30T19:47:55.187Z,7.77
2023-04-30T19:52:03.770Z,5.70
2023-04-30T19:56:12.464Z,3.83
2023-04-30T20:00:21.180Z,3.07
2023-04-30T20:04:30.529Z,2.63
2023-04-30T20:08:39.155Z,3.23
2023-04-30T20:12:48.861Z,3.00
2023-04-30T20:16:57.524Z,3.30
2023-04-30T20:21:06.182Z,3.20
2023-04-30T20:25:14.999Z,6.57
2023-04-30T20:29:23.635Z,5.70
2023-04-30T20:33:35.945Z,14.00
2023-04-30T20:37:44.679Z,3.70
2023-04-30T20:41:53.310Z,3.10
2023-04-30T20:46:02.037Z,3.30
2023-04-30T20:50:10.978Z,4.40
2023-04-30T20:54:19.624Z,4.10
2023-04-30T20:58:28.898Z,4.97
2023-04-30T21:02:37.947Z,4.23
2023-04-30T21:06:46.731Z,3.63
2023-04-30T21:10:56.884Z,3.20
2023-04-30T21:15:06.226Z,3.90
2023-04-30T21:19:14.801Z,3.40
2023-04-30T21:23:26.770Z,3.30
2023-04-30T21:27:54.747Z,4.93
2023-04-30T21:32:03.741Z,6.07
2023-04-30T21:36:12.785Z,6.60
2023-04-30T21:40:21.402Z,7.63
2023-04-30T21:44:32.921Z,4.23
2023-04-30T21:48:55.298Z,5.50
2023-04-30T21:53:05.465Z,2.83
2023-04-30T21:57:17.164Z,8.97
2023-04-30T22:01:28.796Z,3.83
2023-04-30T22:05:39.949Z,3.90
2023-04-30T22:10:08.259Z,4.23
2023-04-30T22:14:20.039Z,4.20
2023-04-30T22:18:28.627Z,2.83
2023-04-30T22:22:37.492Z,3.60
2023-04-30T22:26:46.110Z,4.20
2023-04-30T22:31:00.834Z,4.30
2023-04-30T22:35:30.873Z,3.17
2023-04-30T22:39:42.733Z,5.60
2023-04-30T22:44:13.738Z,5.10
2023-04-30T22:48:22.999Z,5.13
2023-04-30T22:52:35.353Z,10.97
2023-04-30T22:56:45.222Z,4.87
2023-04-30T23:00:56.934Z,6.77
2023-04-30T23:05:12.954Z,5.70
2023-04-30T23:09:21.636Z,5.53
2023-04-30T23:13:30.422Z,5.03
2023-04-30T23:17:39.081Z,4.73
2023-04-30T23:21:47.727Z,6.10
2023-04-30T23:25:56.806Z,4.97
2023-04-30T23:30:07.244Z,3.77
2023-04-30T23:34:16.440Z,9.07
2023-04-30T23:38:25.716Z,4.20
2023-04-30T23:42:34.725Z,5.07
2023-04-30T23:47:04.100Z,7.40
2023-04-30T23:51:16.802Z,6.63
2023-04-30T23:55:25.383Z,6.20
2023-04-30T23:59:35.800Z,9.90
